createdAt,value
2022-08-23T00:00:30.318Z,99.99
2022-08-23T00:01:31.266Z,99.99
2022-08-23T00:02:30.340Z,99.99
2022-08-23T00:03:30.308Z,99.99
2022-08-23T00:04:35.034Z,99.99
2022-08-23T00:05:30.293Z,99.99
2022-08-23T00:06:30.271Z,99.99
2022-08-23T00:07:30.288Z,99.99
2022-08-23T00:08:30.258Z,99.99
2022-08-23T00:09:30.258Z,99.99
2022-08-23T00:10:30.255Z,99.99
2022-08-23T00:11:30.252Z,99.99
2022-08-23T00:12:30.256Z,99.99
2022-08-23T00:13:47.459Z,99.99
2022-08-23T00:14:30.227Z,99.99
2022-08-23T00:15:30.219Z,99.99
2022-08-23T00:16:30.214Z,99.99
2022-08-23T00:17:34.345Z,99.99
2022-08-23T00:18:30.427Z,99.99
2022-08-23T00:19:30.226Z,99.99
2022-08-23T00:20:30.205Z,99.99
2022-08-23T00:21:30.226Z,99.99
2022-08-23T00:22:30.211Z,99.99
2022-08-23T00:23:30.204Z,99.99
2022-08-23T00:24:30.174Z,99.99
2022-08-23T00:25:30.442Z,99.99
2022-08-23T00:26:30.180Z,99.99
2022-08-23T00:27:30.153Z,99.99
2022-08-23T00:28:30.140Z,99.99
2022-08-23T00:29:30.154Z,99.99
2022-08-23T00:30:30.327Z,99.99
2022-08-23T00:31:30.157Z,99.99
2022-08-23T00:32:30.149Z,99.99
2022-08-23T00:33:30.140Z,99.99
2022-08-23T00:34:30.196Z,99.99
2022-08-23T00:35:30.102Z,99.99
2022-08-23T00:36:30.145Z,99.99
2022-08-23T00:37:30.092Z,99.99
2022-08-23T00:38:34.012Z,99.99
2022-08-23T00:39:30.089Z,99.99
2022-08-23T00:40:30.110Z,99.99
2022-08-23T00:41:30.085Z,99.99
2022-08-23T00:42:30.078Z,99.99
2022-08-23T00:43:30.059Z,99.99
2022-08-23T00:44:30.046Z,99.99
2022-08-23T00:45:30.056Z,99.99
2022-08-23T00:46:30.079Z,99.99
2022-08-23T00:47:30.047Z,99.99
2022-08-23T00:48:30.049Z,99.99
2022-08-23T00:49:30.028Z,99.99
2022-08-23T00:50:30.051Z,99.99
2022-08-23T00:51:30.010Z,99.99
2022-08-23T00:52:30.033Z,99.99
2022-08-23T00:53:29.987Z,99.99
2022-08-23T00:54:30.038Z,99.99
2022-08-23T00:55:30.021Z,99.99
2022-08-23T00:56:30.077Z,99.99
2022-08-23T00:57:29.973Z,99.99
2022-08-23T00:58:29.967Z,99.99
2022-08-23T00:59:29.961Z,99.99
2022-08-23T01:00:29.966Z,99.99
2022-08-23T01:01:30.029Z,99.99
2022-08-23T01:02:29.936Z,99.99
2022-08-23T01:03:29.935Z,99.99
2022-08-23T01:04:29.936Z,99.99
2022-08-23T01:05:29.946Z,99.99
2022-08-23T01:06:29.937Z,99.99
2022-08-23T01:07:29.932Z,99.99
2022-08-23T01:08:29.916Z,99.99
2022-08-23T01:09:29.893Z,99.99
2022-08-23T01:10:29.910Z,99.99
2022-08-23T01:11:29.883Z,99.99
2022-08-23T01:12:32.606Z,99.99
2022-08-23T01:13:29.927Z,99.99
2022-08-23T01:14:29.872Z,99.99
2022-08-23T01:15:29.845Z,99.99
2022-08-23T01:16:29.909Z,99.99
2022-08-23T01:17:29.877Z,99.99
2022-08-23T01:18:29.866Z,99.99
2022-08-23T01:19:31.762Z,99.99
2022-08-23T01:20:29.836Z,99.99
2022-08-23T01:21:29.818Z,99.99
2022-08-23T01:22:29.834Z,99.99
2022-08-23T01:23:29.850Z,99.99
2022-08-23T01:25:05.985Z,99.99
2022-08-23T01:25:29.822Z,99.99
2022-08-23T01:26:29.805Z,99.99
2022-08-23T01:27:30.187Z,99.99
2022-08-23T01:28:29.808Z,99.99
2022-08-23T01:29:29.789Z,99.99
2022-08-23T01:30:29.780Z,99.99
2022-08-23T01:31:29.772Z,99.99
2022-08-23T01:32:29.779Z,99.99
2022-08-23T01:33:29.766Z,99.99
2022-08-23T01:34:29.731Z,99.99
2022-08-23T01:35:29.744Z,99.99
2022-08-23T01:36:29.750Z,99.99
2022-08-23T01:37:29.742Z,99.99
2022-08-23T01:38:30.309Z,99.99
2022-08-23T01:39:29.720Z,99.99
2022-08-23T01:40:29.700Z,99.99
2022-08-23T01:41:29.699Z,99.99
2022-08-23T01:42:29.715Z,99.99
2022-08-23T01:43:29.675Z,99.99
2022-08-23T01:44:29.678Z,99.99
2022-08-23T01:45:29.870Z,99.99
2022-08-23T01:46:29.672Z,99.99
2022-08-23T01:47:29.657Z,99.99
2022-08-23T01:48:29.679Z,99.99
2022-08-23T01:49:29.682Z,99.99
2022-08-23T01:50:29.712Z,99.99
2022-08-23T01:51:29.663Z,99.99
2022-08-23T01:52:29.625Z,99.99
2022-08-23T01:53:29.613Z,99.99
2022-08-23T01:54:29.635Z,99.99
2022-08-23T01:55:29.597Z,99.99
2022-08-23T01:56:38.646Z,99.99
2022-08-23T01:57:29.592Z,99.99
2022-08-23T01:58:29.613Z,99.99
2022-08-23T01:59:29.612Z,99.99
2022-08-23T02:00:29.749Z,99.99
2022-08-23T02:01:29.634Z,99.99
2022-08-23T02:02:29.587Z,99.99
2022-08-23T02:03:29.579Z,99.99
2022-08-23T02:04:29.567Z,99.99
2022-08-23T02:05:29.558Z,99.99
2022-08-23T02:06:29.556Z,99.99
2022-08-23T02:07:29.561Z,99.99
2022-08-23T02:08:29.552Z,99.99
2022-08-23T02:09:29.528Z,99.99
2022-08-23T02:10:29.490Z,99.99
2022-08-23T02:11:29.521Z,99.99
2022-08-23T02:12:29.529Z,99.99
2022-08-23T02:13:29.502Z,99.99
2022-08-23T02:14:29.499Z,99.99
2022-08-23T02:15:29.467Z,99.99
2022-08-23T02:16:29.481Z,99.99
2022-08-23T02:17:29.462Z,99.99
2022-08-23T02:18:29.448Z,99.99
2022-08-23T02:19:29.435Z,99.99
2022-08-23T02:20:29.441Z,99.99
2022-08-23T02:21:29.425Z,99.99
2022-08-23T02:22:29.426Z,99.99
2022-08-23T02:23:29.460Z,99.99
2022-08-23T02:24:29.430Z,99.99
2022-08-23T02:25:29.432Z,99.99
2022-08-23T02:26:30.971Z,99.99
2022-08-23T02:27:29.429Z,99.99
2022-08-23T02:28:29.392Z,99.99
2022-08-23T02:29:29.396Z,99.99
2022-08-23T02:30:29.425Z,99.99
2022-08-23T02:31:29.411Z,99.99
2022-08-23T02:32:29.405Z,99.99
2022-08-23T02:33:29.418Z,99.99
2022-08-23T02:34:35.632Z,99.99
2022-08-23T02:35:29.383Z,99.99
2022-08-23T02:36:29.385Z,99.99
2022-08-23T02:37:29.346Z,99.99
2022-08-23T02:38:29.349Z,99.99
2022-08-23T02:39:29.320Z,99.99
2022-08-23T02:40:29.340Z,99.99
2022-08-23T02:41:29.298Z,99.99
2022-08-23T02:42:29.313Z,99.99
2022-08-23T02:43:29.307Z,99.99
2022-08-23T02:44:29.289Z,99.99
2022-08-23T02:45:29.284Z,99.99
2022-08-23T02:49:16.301Z,99.99
2022-08-23T02:50:16.286Z,99.99
2022-08-23T02:51:16.316Z,99.99
2022-08-23T02:52:16.302Z,99.99
2022-08-23T02:53:16.294Z,99.99
2022-08-23T02:54:16.310Z,99.99
2022-08-23T02:55:16.265Z,99.99
2022-08-23T02:56:21.675Z,99.99
2022-08-23T02:57:16.315Z,99.99
2022-08-23T02:58:16.270Z,99.99
2022-08-23T02:59:16.232Z,99.99
2022-08-23T03:00:16.265Z,99.99
2022-08-23T03:01:16.217Z,99.99
2022-08-23T03:02:16.260Z,99.99
2022-08-23T03:03:16.240Z,99.99
2022-08-23T03:04:16.211Z,99.99
2022-08-23T03:05:16.207Z,99.99
2022-08-23T03:06:25.335Z,99.99
2022-08-23T03:07:16.168Z,99.99
2022-08-23T03:08:16.201Z,99.99
2022-08-23T03:09:16.164Z,99.99
2022-08-23T03:10:16.149Z,99.99
2022-08-23T03:11:16.150Z,99.99
2022-08-23T03:12:16.128Z,99.99
2022-08-23T03:13:16.154Z,99.99
2022-08-23T03:14:16.147Z,99.99
2022-08-23T03:15:16.106Z,99.99
2022-08-23T03:16:16.102Z,99.99
2022-08-23T03:17:16.099Z,99.99
2022-08-23T03:18:16.095Z,99.99
2022-08-23T03:19:16.105Z,99.99
2022-08-23T03:20:16.077Z,99.99
2022-08-23T03:21:16.065Z,99.99
2022-08-23T03:22:16.077Z,99.99
2022-08-23T03:23:16.045Z,99.99
2022-08-23T03:24:16.052Z,99.99
2022-08-23T03:25:16.057Z,99.99
2022-08-23T03:26:16.039Z,99.99
2022-08-23T03:27:16.029Z,99.99
2022-08-23T03:28:16.032Z,99.99
2022-08-23T03:29:16.057Z,99.99
2022-08-23T03:30:19.610Z,99.99
2022-08-23T03:31:16.005Z,99.99
2022-08-23T03:32:15.976Z,99.99
2022-08-23T03:33:15.981Z,99.99
2022-08-23T03:34:15.983Z,99.99
2022-08-23T03:35:15.947Z,99.99
2022-08-23T03:36:15.970Z,99.99
2022-08-23T03:37:15.949Z,99.99
2022-08-23T03:38:15.946Z,99.99
2022-08-23T03:39:15.924Z,99.99
2022-08-23T03:40:15.973Z,99.99
2022-08-23T03:41:15.930Z,99.99
2022-08-23T03:42:15.924Z,99.99
2022-08-23T03:43:15.951Z,99.99
2022-08-23T03:44:15.935Z,99.99
2022-08-23T03:45:15.888Z,99.99
2022-08-23T03:46:15.897Z,99.99
2022-08-23T03:47:15.893Z,99.99
2022-08-23T03:48:15.924Z,99.99
2022-08-23T03:49:15.894Z,99.99
2022-08-23T03:50:15.855Z,99.99
2022-08-23T03:51:15.869Z,99.99
2022-08-23T03:52:15.849Z,99.99
2022-08-23T03:53:15.845Z,99.99
2022-08-23T03:54:15.855Z,99.99
2022-08-23T03:55:15.874Z,99.99
2022-08-23T03:56:15.827Z,99.99
2022-08-23T03:57:15.847Z,99.99
2022-08-23T03:58:15.804Z,99.99
2022-08-23T03:59:15.868Z,99.99
2022-08-23T04:00:20.583Z,99.99
2022-08-23T04:01:15.814Z,99.99
2022-08-23T04:02:15.825Z,99.99
2022-08-23T04:03:15.776Z,99.99
2022-08-23T04:04:15.751Z,99.99
2022-08-23T04:05:15.738Z,99.99
2022-08-23T04:06:15.768Z,99.99
2022-08-23T04:07:15.759Z,99.99
2022-08-23T04:08:18.114Z,99.99
2022-08-23T04:09:15.759Z,99.99
2022-08-23T04:10:15.700Z,99.99
2022-08-23T04:11:15.706Z,99.99
2022-08-23T04:12:17.636Z,99.99
2022-08-23T04:13:15.681Z,99.99
2022-08-23T04:14:15.700Z,99.99
2022-08-23T04:15:15.684Z,99.99
2022-08-23T04:16:15.690Z,99.99
2022-08-23T04:17:15.688Z,99.99
2022-08-23T04:18:15.661Z,99.99
2022-08-23T04:19:15.631Z,99.99
2022-08-23T04:20:15.665Z,99.99
2022-08-23T04:21:15.656Z,99.99
2022-08-23T04:22:15.620Z,99.99
2022-08-23T04:23:15.638Z,99.99
2022-08-23T04:24:15.595Z,99.99
2022-08-23T04:25:33.995Z,99.99
2022-08-23T04:26:15.620Z,99.99
2022-08-23T04:27:15.590Z,99.99
2022-08-23T04:28:15.594Z,99.99
2022-08-23T04:29:31.458Z,99.99
2022-08-23T04:30:15.575Z,99.99
2022-08-23T04:31:15.569Z,99.99
2022-08-23T04:32:26.557Z,99.99
2022-08-23T04:33:18.019Z,99.99
2022-08-23T04:34:15.532Z,99.99
2022-08-23T04:35:15.549Z,99.99
2022-08-23T04:36:15.526Z,99.99
2022-08-23T04:37:15.513Z,99.99
2022-08-23T04:38:24.139Z,99.99
2022-08-23T04:39:15.500Z,99.99
2022-08-23T04:40:15.547Z,99.99
2022-08-23T04:41:15.489Z,99.99
2022-08-23T04:42:15.470Z,99.99
2022-08-23T04:43:15.663Z,99.99
2022-08-23T04:44:15.498Z,99.99
2022-08-23T04:45:15.498Z,99.99
2022-08-23T04:46:15.496Z,99.99
2022-08-23T04:47:15.521Z,99.99
2022-08-23T04:48:15.478Z,99.99
2022-08-23T04:49:15.472Z,99.99
2022-08-23T04:50:15.435Z,99.99
2022-08-23T04:51:15.443Z,99.99
2022-08-23T04:52:19.201Z,99.99
2022-08-23T04:53:15.418Z,99.99
2022-08-23T04:54:16.876Z,99.99
2022-08-23T04:55:15.407Z,99.99
2022-08-23T04:56:15.403Z,99.99
2022-08-23T04:57:15.380Z,99.99
2022-08-23T04:58:15.414Z,99.99
2022-08-23T04:59:17.989Z,99.99
2022-08-23T05:00:15.359Z,99.99
2022-08-23T05:01:15.407Z,99.99
2022-08-23T05:02:15.360Z,99.99
2022-08-23T05:03:15.373Z,99.99
2022-08-23T05:04:15.337Z,99.99
2022-08-23T05:05:15.335Z,99.99
2022-08-23T05:06:15.316Z,99.99
2022-08-23T05:07:15.439Z,99.99
2022-08-23T05:08:15.409Z,99.99
2022-08-23T05:09:19.977Z,99.99
2022-08-23T05:10:15.373Z,99.99
2022-08-23T05:11:15.300Z,99.99
2022-08-23T05:12:15.318Z,99.99
2022-08-23T05:13:15.381Z,99.99
2022-08-23T05:14:15.304Z,99.99
2022-08-23T05:15:15.275Z,99.99
2022-08-23T05:16:15.276Z,99.99
2022-08-23T05:17:15.369Z,99.99
2022-08-23T05:18:15.266Z,99.99
2022-08-23T05:19:15.254Z,99.99
2022-08-23T05:20:15.244Z,99.99
2022-08-23T05:21:15.252Z,99.99
2022-08-23T05:22:15.272Z,99.99
2022-08-23T05:23:15.244Z,99.99
2022-08-23T05:24:15.283Z,99.99
2022-08-23T05:25:15.223Z,99.99
2022-08-23T05:26:15.240Z,99.99
2022-08-23T05:27:15.191Z,99.99
2022-08-23T05:28:15.222Z,99.99
2022-08-23T05:29:15.183Z,99.99
2022-08-23T05:30:15.680Z,99.99
2022-08-23T05:31:15.199Z,99.99
2022-08-23T05:32:15.240Z,99.99
2022-08-23T05:33:15.142Z,99.99
2022-08-23T05:34:15.201Z,99.99
2022-08-23T05:35:15.148Z,99.99
2022-08-23T05:36:15.157Z,99.99
2022-08-23T05:37:15.236Z,99.99
2022-08-23T05:38:20.154Z,99.99
2022-08-23T05:39:15.115Z,99.99
2022-08-23T05:40:15.225Z,99.99
2022-08-23T05:41:15.131Z,99.99
2022-08-23T05:42:15.138Z,99.99
2022-08-23T05:43:15.144Z,99.99
2022-08-23T05:44:15.138Z,99.99
2022-08-23T05:45:19.392Z,99.99
2022-08-23T05:46:15.067Z,99.99
2022-08-23T05:47:15.604Z,99.99
2022-08-23T05:48:15.097Z,99.99
2022-08-23T05:49:15.488Z,99.99
2022-08-23T05:50:15.053Z,99.99
2022-08-23T05:51:15.049Z,99.99
2022-08-23T05:52:15.075Z,99.99
2022-08-23T05:53:15.081Z,99.99
2022-08-23T05:54:15.053Z,99.99
2022-08-23T05:55:15.102Z,99.99
2022-08-23T05:56:15.024Z,99.99
2022-08-23T05:57:15.007Z,99.99
2022-08-23T05:58:15.007Z,99.99
2022-08-23T05:59:15.023Z,99.99
2022-08-23T06:00:15.027Z,99.99
2022-08-23T06:01:15.097Z,99.99
2022-08-23T06:02:15.029Z,99.99
2022-08-23T06:03:15.009Z,99.99
2022-08-23T06:04:14.976Z,99.99
2022-08-23T06:05:14.982Z,99.99
2022-08-23T06:06:14.961Z,99.99
2022-08-23T06:07:15.004Z,99.99
2022-08-23T06:08:14.970Z,99.99
2022-08-23T06:09:14.973Z,99.99
2022-08-23T06:10:15.989Z,99.99
2022-08-23T06:11:14.931Z,99.99
2022-08-23T06:12:14.951Z,99.99
2022-08-23T06:13:14.957Z,99.99
2022-08-23T06:14:15.030Z,99.99
2022-08-23T06:15:15.036Z,99.99
2022-08-23T06:16:15.440Z,99.99
2022-08-23T06:17:14.921Z,99.99
2022-08-23T06:18:14.883Z,99.99
2022-08-23T06:19:15.035Z,99.99
2022-08-23T06:20:14.947Z,99.99
2022-08-23T06:21:14.887Z,99.99
2022-08-23T06:22:14.921Z,99.99
2022-08-23T06:23:15.173Z,99.99
2022-08-23T06:24:14.873Z,99.99
2022-08-23T06:25:14.865Z,99.99
2022-08-23T06:26:14.858Z,99.99
2022-08-23T06:27:14.860Z,99.99
2022-08-23T06:28:15.131Z,99.99
2022-08-23T06:29:14.904Z,99.99
2022-08-23T06:30:14.842Z,99.99
2022-08-23T06:31:14.991Z,99.99
2022-08-23T06:32:14.912Z,99.99
2022-08-23T06:33:14.871Z,99.99
2022-08-23T06:34:14.821Z,99.99
2022-08-23T06:35:38.343Z,99.99
2022-08-23T06:36:14.896Z,99.99
2022-08-23T06:37:14.793Z,99.99
2022-08-23T06:38:14.806Z,99.99
2022-08-23T06:39:14.766Z,99.99
2022-08-23T06:40:14.815Z,99.99
2022-08-23T06:41:14.762Z,99.99
2022-08-23T06:42:37.598Z,99.99
2022-08-23T06:43:14.773Z,99.99
2022-08-23T06:44:14.772Z,99.99
2022-08-23T06:45:14.761Z,99.99
2022-08-23T06:46:14.842Z,99.99
2022-08-23T06:47:14.747Z,99.99
2022-08-23T06:48:18.710Z,99.99
2022-08-23T06:49:14.732Z,99.99
2022-08-23T06:50:14.720Z,99.99
2022-08-23T06:51:14.748Z,99.99
2022-08-23T06:52:14.886Z,99.99
2022-08-23T06:53:14.721Z,99.99
2022-08-23T06:54:14.704Z,99.99
2022-08-23T06:55:14.750Z,99.99
2022-08-23T06:56:14.687Z,99.99
2022-08-23T06:57:14.689Z,99.78
2022-08-23T06:58:14.673Z,99.99
2022-08-23T06:59:14.698Z,98.91
2022-08-23T07:00:16.818Z,98.53
2022-08-23T07:01:35.146Z,99.30
2022-08-23T07:02:15.448Z,98.49
2022-08-23T07:03:14.679Z,97.91
2022-08-23T07:04:14.861Z,97.14
2022-08-23T07:05:14.661Z,98.58
2022-08-23T07:06:14.702Z,97.04
2022-08-23T07:07:14.937Z,97.47
2022-08-23T07:08:14.753Z,97.28
2022-08-23T07:09:14.635Z,94.78
2022-08-23T07:10:14.718Z,95.45
2022-08-23T07:11:15.686Z,94.59
2022-08-23T07:12:14.623Z,96.22
2022-08-23T07:13:18.369Z,98.72
2022-08-23T07:14:14.827Z,96.46
2022-08-23T07:15:15.047Z,94.64
2022-08-23T07:16:14.661Z,93.77
2022-08-23T07:17:14.602Z,94.20
2022-08-23T07:18:14.603Z,92.66
2022-08-23T07:19:14.601Z,90.92
2022-08-23T07:20:14.608Z,92.85
2022-08-23T07:21:14.630Z,92.37
2022-08-23T07:22:15.651Z,92.18
2022-08-23T07:23:14.573Z,93.04
2022-08-23T07:24:14.601Z,90.64
2022-08-23T07:25:14.607Z,90.25
2022-08-23T07:26:14.564Z,91.31
2022-08-23T07:27:14.572Z,90.92
2022-08-23T07:28:14.858Z,92.08
2022-08-23T07:29:14.564Z,93.14
2022-08-23T07:30:14.651Z,91.79
2022-08-23T07:31:14.971Z,90.64
2022-08-23T07:32:14.586Z,91.74
2022-08-23T07:33:14.886Z,88.46
2022-08-23T07:34:15.507Z,88.37
2022-08-23T07:35:14.620Z,90.88
2022-08-23T07:36:14.529Z,90.72
2022-08-23T07:37:15.402Z,89.32
2022-08-23T07:38:14.879Z,87.68
2022-08-23T07:39:14.533Z,86.86
2022-08-23T07:40:20.673Z,83.96
2022-08-23T07:41:14.554Z,85.60
2022-08-23T07:42:22.723Z,84.21
2022-08-23T07:43:15.100Z,84.44
2022-08-23T07:44:18.294Z,85.31
2022-08-23T07:45:14.529Z,86.28
2022-08-23T07:46:15.028Z,83.77
2022-08-23T07:47:14.549Z,84.93
2022-08-23T07:48:20.447Z,84.59
2022-08-23T07:49:14.518Z,84.21
2022-08-23T07:50:14.473Z,85.08
2022-08-23T07:51:14.475Z,85.03
2022-08-23T07:52:14.508Z,86.00
2022-08-23T07:53:14.478Z,87.59
2022-08-23T07:54:14.470Z,85.31
2022-08-23T07:55:14.475Z,85.41
2022-08-23T07:56:14.466Z,83.04
2022-08-23T07:57:14.456Z,83.91
2022-08-23T07:58:14.454Z,83.91
2022-08-23T07:59:14.725Z,82.46
2022-08-23T08:00:14.610Z,83.85
2022-08-23T08:01:14.440Z,81.78
2022-08-23T08:02:14.522Z,82.17
2022-08-23T08:03:14.520Z,82.46
2022-08-23T08:04:14.580Z,84.91
2022-08-23T08:05:17.298Z,82.21
2022-08-23T08:06:14.713Z,82.40
2022-08-23T08:07:21.741Z,81.40
2022-08-23T08:08:14.477Z,82.26
2022-08-23T08:09:14.436Z,82.23
2022-08-23T08:10:14.432Z,84.78
2022-08-23T08:11:14.444Z,84.48
2022-08-23T08:12:14.456Z,83.27
2022-08-23T08:13:14.419Z,83.56
2022-08-23T08:14:14.461Z,82.11
2022-08-23T08:15:14.434Z,81.09
2022-08-23T08:16:14.472Z,80.94
2022-08-23T08:17:14.421Z,76.53
2022-08-23T08:18:14.422Z,77.63
2022-08-23T08:19:15.017Z,77.20
2022-08-23T08:20:14.470Z,78.52
2022-08-23T08:21:14.432Z,80.41
2022-08-23T08:22:14.445Z,79.25
2022-08-23T08:23:14.556Z,80.57
2022-08-23T08:24:14.439Z,81.15
2022-08-23T08:25:14.433Z,81.82
2022-08-23T08:26:14.439Z,80.03
2022-08-23T08:27:14.951Z,78.03
2022-08-23T08:28:16.054Z,77.59
2022-08-23T08:29:15.013Z,76.08
2022-08-23T08:30:14.430Z,75.34
2022-08-23T08:31:14.801Z,75.77
2022-08-23T08:33:14.553Z,73.69
2022-08-23T08:34:14.434Z,73.69
2022-08-23T08:35:14.451Z,74.24
2022-08-23T08:36:14.456Z,76.28
2022-08-23T08:37:14.553Z,75.27
2022-08-23T08:38:14.451Z,77.11
2022-08-23T08:39:14.498Z,77.88
2022-08-23T08:40:14.524Z,78.89
2022-08-23T08:41:14.481Z,77.76
2022-08-23T08:42:14.667Z,74.22
2022-08-23T08:43:14.449Z,74.47
2022-08-23T08:44:16.282Z,74.24
2022-08-23T08:45:14.469Z,76.62
2022-08-23T08:46:14.529Z,77.50
2022-08-23T08:47:14.471Z,77.84
2022-08-23T08:48:14.472Z,78.29
2022-08-23T08:49:14.458Z,80.94
2022-08-23T08:50:14.455Z,79.49
2022-08-23T08:51:14.481Z,77.69
2022-08-23T08:52:14.458Z,77.01
2022-08-23T08:53:14.455Z,76.37
2022-08-23T08:54:14.466Z,76.46
2022-08-23T08:55:14.457Z,77.37
2022-08-23T08:56:14.442Z,76.79
2022-08-23T08:57:14.454Z,74.96
2022-08-23T08:58:14.434Z,76.41
2022-08-23T08:59:14.433Z,76.06
2022-08-23T09:00:14.423Z,75.28
2022-08-23T09:01:14.688Z,74.35
2022-08-23T09:02:31.897Z,73.32
2022-08-23T09:03:14.580Z,70.51
2022-08-23T09:04:14.443Z,71.73
2022-08-23T09:05:14.482Z,72.57
2022-08-23T09:06:14.559Z,73.21
2022-08-23T09:07:14.471Z,73.85
2022-08-23T09:08:14.447Z,76.31
2022-08-23T09:09:14.437Z,74.16
2022-08-23T09:10:14.419Z,71.67
2022-08-23T09:11:14.442Z,70.61
2022-08-23T09:12:16.074Z,70.61
2022-08-23T09:13:14.438Z,72.47
2022-08-23T09:14:14.430Z,75.05
2022-08-23T09:15:14.453Z,75.24
2022-08-23T09:16:14.513Z,73.41
2022-08-23T09:17:14.444Z,74.60
2022-08-23T09:18:14.418Z,73.28
2022-08-23T09:19:14.412Z,72.93
2022-08-23T09:20:14.653Z,70.67
2022-08-23T09:21:14.421Z,73.44
2022-08-23T09:22:14.496Z,72.67
2022-08-23T09:23:14.649Z,74.35
2022-08-23T09:24:14.420Z,70.80
2022-08-23T09:25:14.453Z,72.00
2022-08-23T09:26:14.399Z,71.84
2022-08-23T09:27:14.475Z,69.90
2022-08-23T09:28:14.405Z,69.09
2022-08-23T09:29:14.438Z,69.60
2022-08-23T09:30:14.429Z,71.47
2022-08-23T09:31:14.449Z,73.83
2022-08-23T09:32:14.469Z,74.32
2022-08-23T09:33:14.388Z,71.99
2022-08-23T09:34:14.391Z,73.02
2022-08-23T09:35:14.407Z,74.38
2022-08-23T09:36:14.382Z,73.69
2022-08-23T09:37:14.387Z,74.24
2022-08-23T09:38:14.397Z,75.11
2022-08-23T09:39:14.566Z,74.43
2022-08-23T09:40:14.599Z,73.57
2022-08-23T09:41:14.418Z,74.53
2022-08-23T09:42:14.408Z,74.86
2022-08-23T09:43:14.376Z,74.47
2022-08-23T09:44:14.385Z,74.24
2022-08-23T09:45:14.393Z,75.50
2022-08-23T09:46:14.432Z,74.15
2022-08-23T09:47:14.389Z,74.38
2022-08-23T09:48:14.391Z,76.70
2022-08-23T09:49:14.449Z,73.64
2022-08-23T09:50:14.361Z,72.61
2022-08-23T09:51:14.381Z,73.19
2022-08-23T09:52:20.274Z,71.77
2022-08-23T09:53:14.551Z,71.80
2022-08-23T09:54:14.490Z,69.32
2022-08-23T09:55:14.402Z,69.41
2022-08-23T09:56:14.383Z,68.83
2022-08-23T09:57:14.380Z,67.37
2022-08-23T09:58:14.384Z,70.77
2022-08-23T09:59:14.411Z,70.21
2022-08-23T10:00:14.352Z,70.86
2022-08-23T10:01:14.460Z,70.92
2022-08-23T10:02:14.417Z,73.44
2022-08-23T10:03:14.593Z,71.76
2022-08-23T10:04:14.470Z,74.38
2022-08-23T10:05:14.887Z,73.48
2022-08-23T10:06:14.381Z,74.10
2022-08-23T10:07:14.378Z,69.83
2022-08-23T10:08:14.925Z,70.15
2022-08-23T10:09:14.361Z,67.83
2022-08-23T10:10:14.372Z,67.63
2022-08-23T10:11:14.392Z,69.90
2022-08-23T10:12:14.494Z,69.22
2022-08-23T10:13:14.368Z,69.64
2022-08-23T10:14:14.369Z,67.96
2022-08-23T10:15:14.362Z,68.93
2022-08-23T10:16:14.437Z,68.76
2022-08-23T10:17:14.385Z,69.83
2022-08-23T10:18:14.379Z,69.83
2022-08-23T10:19:14.380Z,70.93
2022-08-23T10:20:14.475Z,69.60
2022-08-23T10:21:18.903Z,67.89
2022-08-23T10:22:14.337Z,66.69
2022-08-23T10:23:14.374Z,67.73
2022-08-23T10:24:14.372Z,69.15
2022-08-23T10:25:14.384Z,69.21
2022-08-23T10:26:14.322Z,71.44
2022-08-23T10:27:14.344Z,70.67
2022-08-23T10:28:14.379Z,71.93
2022-08-23T10:29:14.374Z,70.03
2022-08-23T10:30:14.364Z,69.60
2022-08-23T10:31:14.407Z,71.54
2022-08-23T10:32:14.317Z,71.58
2022-08-23T10:33:18.744Z,70.73
2022-08-23T10:34:14.350Z,70.77
2022-08-23T10:35:14.332Z,67.89
2022-08-23T10:36:14.526Z,68.38
2022-08-23T10:37:14.343Z,69.15
2022-08-23T10:38:14.334Z,65.24
2022-08-23T10:39:14.318Z,67.96
2022-08-23T10:40:14.506Z,67.44
2022-08-23T10:41:14.340Z,68.08
2022-08-23T10:42:14.324Z,69.60
2022-08-23T10:43:14.348Z,70.28
2022-08-23T10:44:14.349Z,69.57
2022-08-23T10:45:14.337Z,69.76
2022-08-23T10:46:14.373Z,72.86
2022-08-23T10:47:14.327Z,71.99
2022-08-23T10:48:14.364Z,72.89
2022-08-23T10:49:14.349Z,71.58
2022-08-23T10:50:14.558Z,70.70
2022-08-23T10:51:14.372Z,69.15
2022-08-23T10:52:14.311Z,67.92
2022-08-23T10:53:14.340Z,68.37
2022-08-23T10:54:14.296Z,70.31
2022-08-23T10:55:14.329Z,68.76
2022-08-23T10:56:14.771Z,70.03
2022-08-23T10:57:14.331Z,70.06
2022-08-23T10:58:14.324Z,69.32
2022-08-23T10:59:14.331Z,68.93
2022-08-23T11:00:14.290Z,67.86
2022-08-23T11:01:14.770Z,66.44
2022-08-23T11:02:14.613Z,67.28
2022-08-23T11:03:14.524Z,69.67
2022-08-23T11:04:14.306Z,68.89
2022-08-23T11:05:14.325Z,69.09
2022-08-23T11:06:14.318Z,68.83
2022-08-23T11:07:14.506Z,69.12
2022-08-23T11:08:14.289Z,69.02
2022-08-23T11:09:14.345Z,66.40
2022-08-23T11:10:16.671Z,69.12
2022-08-23T11:11:14.308Z,66.50
2022-08-23T11:12:14.360Z,66.89
2022-08-23T11:13:14.322Z,66.99
2022-08-23T11:14:14.264Z,67.37
2022-08-23T11:15:14.270Z,67.47
2022-08-23T11:16:14.353Z,67.31
2022-08-23T11:17:14.334Z,64.85
2022-08-23T11:18:14.296Z,67.44
2022-08-23T11:19:14.272Z,67.63
2022-08-23T11:20:14.494Z,67.14
2022-08-23T11:21:14.320Z,67.31
2022-08-23T11:22:14.674Z,70.12
2022-08-23T11:23:14.280Z,67.44
2022-08-23T11:24:14.483Z,66.05
2022-08-23T11:25:14.273Z,67.24
2022-08-23T11:26:14.463Z,67.47
2022-08-23T11:27:14.358Z,66.63
2022-08-23T11:28:14.480Z,65.01
2022-08-23T11:29:14.292Z,63.42
2022-08-23T11:30:14.309Z,64.49
2022-08-23T11:31:14.354Z,65.30
2022-08-23T11:32:14.305Z,63.49
2022-08-23T11:33:14.588Z,64.26
2022-08-23T11:34:14.246Z,63.90
2022-08-23T11:35:14.281Z,62.16
2022-08-23T11:36:14.242Z,62.54
2022-08-23T11:37:14.257Z,61.77
2022-08-23T11:38:14.330Z,63.49
2022-08-23T11:39:19.542Z,62.29
2022-08-23T11:40:18.126Z,63.71
2022-08-23T11:41:14.239Z,64.07
2022-08-23T11:42:14.249Z,64.69
2022-08-23T11:43:14.303Z,64.85
2022-08-23T11:44:14.250Z,64.75
2022-08-23T11:45:14.458Z,63.49
2022-08-23T11:46:14.520Z,64.85
2022-08-23T11:47:14.259Z,65.14
2022-08-23T11:48:14.239Z,65.82
2022-08-23T11:49:14.235Z,65.82
2022-08-23T11:50:14.245Z,65.33
2022-08-23T11:51:14.253Z,65.72
2022-08-23T11:52:14.623Z,64.01
2022-08-23T11:53:15.297Z,65.17
2022-08-23T11:54:14.310Z,65.27
2022-08-23T11:55:14.471Z,63.23
2022-08-23T11:56:14.275Z,64.69
2022-08-23T11:57:14.267Z,64.43
2022-08-23T11:58:14.239Z,63.84
2022-08-23T11:59:14.242Z,62.38
2022-08-23T12:00:14.292Z,63.17
2022-08-23T12:01:14.252Z,63.32
2022-08-23T12:02:16.111Z,64.78
2022-08-23T12:03:14.686Z,64.78
2022-08-23T12:04:14.241Z,65.24
2022-08-23T12:05:14.267Z,64.46
2022-08-23T12:06:14.235Z,65.24
2022-08-23T12:07:14.229Z,65.01
2022-08-23T12:08:14.283Z,65.20
2022-08-23T12:09:14.279Z,66.56
2022-08-23T12:10:14.228Z,66.14
2022-08-23T12:11:14.232Z,66.44
2022-08-23T12:12:14.261Z,65.95
2022-08-23T12:13:14.288Z,65.89
2022-08-23T12:14:18.284Z,66.05
2022-08-23T12:15:17.037Z,64.40
2022-08-23T12:16:18.717Z,65.40
2022-08-23T12:17:18.208Z,66.47
2022-08-23T12:18:23.957Z,65.40
2022-08-23T12:19:14.212Z,65.92
2022-08-23T12:20:16.361Z,64.75
2022-08-23T12:21:14.210Z,63.81
2022-08-23T12:22:14.231Z,63.04
2022-08-23T12:23:14.218Z,65.05
2022-08-23T12:24:14.209Z,63.62
2022-08-23T12:25:14.208Z,63.91
2022-08-23T12:26:14.205Z,62.74
2022-08-23T12:27:14.201Z,63.32
2022-08-23T12:28:14.207Z,63.13
2022-08-23T12:29:14.206Z,63.20
2022-08-23T12:30:14.238Z,64.07
2022-08-23T12:31:14.356Z,63.75
2022-08-23T12:32:14.237Z,65.11
2022-08-23T12:33:14.252Z,63.82
2022-08-23T12:34:14.188Z,64.50
2022-08-23T12:35:14.241Z,65.08
2022-08-23T12:36:16.495Z,65.95
2022-08-23T12:37:14.203Z,65.59
2022-08-23T12:38:14.212Z,64.82
2022-08-23T12:39:14.189Z,64.88
2022-08-23T12:40:14.217Z,66.53
2022-08-23T12:41:14.207Z,65.27
2022-08-23T12:42:14.195Z,66.47
2022-08-23T12:43:17.510Z,64.53
2022-08-23T12:44:14.180Z,64.62
2022-08-23T12:45:14.259Z,63.65
2022-08-23T12:46:14.285Z,63.85
2022-08-23T12:47:14.192Z,63.20
2022-08-23T12:48:14.208Z,63.68
2022-08-23T12:49:15.110Z,63.62
2022-08-23T12:50:15.151Z,62.74
2022-08-23T12:51:14.196Z,63.49
2022-08-23T12:52:14.189Z,63.71
2022-08-23T12:53:14.193Z,63.62
2022-08-23T12:54:14.378Z,62.97
2022-08-23T12:55:14.202Z,63.26
2022-08-23T12:56:14.168Z,62.41